createdAt,value
2017-11-08T00:00:15.725Z,95.19
2017-11-08T00:02:43.254Z,95.60
2017-11-08T00:05:10.831Z,95.91
2017-11-08T00:07:38.360Z,95.63
2017-11-08T00:10:05.897Z,95.39
2017-11-08T00:12:33.468Z,95.39
2017-11-08T00:15:00.997Z,95.61
2017-11-08T00:17:28.519Z,95.58
2017-11-08T00:19:58.060Z,95.72
2017-11-08T00:22:25.588Z,95.88
2017-11-08T00:24:53.162Z,96.14
2017-11-08T00:27:20.681Z,95.81
2017-11-08T00:29:48.218Z,96.10
2017-11-08T00:32:15.895Z,95.84
2017-11-08T00:34:43.436Z,95.61
2017-11-08T00:37:10.956Z,96.09
2017-11-08T00:39:38.526Z,96.05
2017-11-08T00:42:06.057Z,96.60
2017-11-08T00:44:33.584Z,96.62
2017-11-08T00:47:01.314Z,96.42
2017-11-08T00:49:28.841Z,96.34
2017-11-08T00:51:56.366Z,96.29
2017-11-08T00:54:23.961Z,96.43
2017-11-08T00:56:51.476Z,96.27
2017-11-08T00:59:19.006Z,96.13
2017-11-08T01:01:47.049Z,95.91
2017-11-08T01:04:14.563Z,95.98
2017-11-08T01:06:42.094Z,95.71
2017-11-08T01:09:09.640Z,95.92
2017-11-08T01:11:37.202Z,95.43
2017-11-08T01:14:04.753Z,95.14
2017-11-08T01:16:33.320Z,95.53
2017-11-08T01:19:00.874Z,95.81
2017-11-08T01:21:28.449Z,95.67
2017-11-08T01:23:56.002Z,95.68
2017-11-08T01:26:23.519Z,95.66
2017-11-08T01:28:51.101Z,95.52
2017-11-08T01:31:18.629Z,95.95
2017-11-08T01:33:46.148Z,95.89
2017-11-08T01:36:13.724Z,95.55
2017-11-08T01:38:43.060Z,96.47
2017-11-08T01:41:16.824Z,96.45
2017-11-08T01:43:44.354Z,95.42
2017-11-08T01:46:17.105Z,95.62
2017-11-08T01:48:44.637Z,95.50
2017-11-08T01:51:14.132Z,95.21
2017-11-08T01:53:41.725Z,95.15
2017-11-08T01:56:09.313Z,95.26
2017-11-08T01:58:36.907Z,94.72
2017-11-08T02:01:04.502Z,94.79
2017-11-08T02:03:32.133Z,94.77
2017-11-08T02:05:59.656Z,94.37
2017-11-08T02:08:27.191Z,94.62
2017-11-08T02:10:54.810Z,94.63
2017-11-08T02:13:22.332Z,94.63
2017-11-08T02:15:50.611Z,94.89
2017-11-08T02:18:22.445Z,94.83
2017-11-08T02:20:50.005Z,94.93
2017-11-08T02:23:17.621Z,94.86
2017-11-08T02:25:45.332Z,94.76
2017-11-08T02:28:12.873Z,94.89
2017-11-08T02:30:40.416Z,94.76
2017-11-08T02:33:08.384Z,95.47
2017-11-08T02:35:35.951Z,94.68
2017-11-08T02:38:03.481Z,94.83
2017-11-08T02:40:31.038Z,95.11
2017-11-08T02:42:58.573Z,95.00
2017-11-08T02:45:34.793Z,94.70
2017-11-08T02:48:02.329Z,94.82
2017-11-08T02:50:30.272Z,94.97
2017-11-08T02:52:57.785Z,94.86
2017-11-08T02:55:25.320Z,95.06
2017-11-08T02:57:53.176Z,94.60
2017-11-08T03:00:20.719Z,95.03
2017-11-08T03:02:51.057Z,94.79
2017-11-08T03:05:18.661Z,94.95
2017-11-08T03:07:46.182Z,94.98
2017-11-08T03:10:13.714Z,94.71
2017-11-08T03:12:41.375Z,94.72
2017-11-08T03:15:08.906Z,94.93
2017-11-08T03:17:36.446Z,94.96
2017-11-08T03:20:04.216Z,94.40
2017-11-08T03:22:31.746Z,94.87
2017-11-08T03:24:59.283Z,94.83
2017-11-08T03:27:27.049Z,94.81
2017-11-08T03:29:54.584Z,95.27
2017-11-08T03:32:22.277Z,94.84
2017-11-08T03:34:49.862Z,94.64
2017-11-08T03:37:17.409Z,94.57
2017-11-08T03:39:44.966Z,94.79
2017-11-08T03:42:12.531Z,94.63
2017-11-08T03:44:40.189Z,94.58
2017-11-08T03:47:07.707Z,94.36
2017-11-08T03:49:35.269Z,94.54
2017-11-08T03:52:03.181Z,94.30
2017-11-08T03:54:30.716Z,94.39
2017-11-08T03:56:58.227Z,94.71
2017-11-08T03:59:25.910Z,94.42
2017-11-08T04:01:53.442Z,94.55
2017-11-08T04:04:20.970Z,94.42
2017-11-08T04:06:48.527Z,94.67
2017-11-08T04:09:16.081Z,94.71
2017-11-08T04:11:43.600Z,94.69
2017-11-08T04:14:11.336Z,94.92
2017-11-08T04:16:38.861Z,94.87
2017-11-08T04:19:06.398Z,94.93
2017-11-08T04:21:34.161Z,94.93
2017-11-08T04:24:01.712Z,94.66
2017-11-08T04:26:29.241Z,95.04
2017-11-08T04:28:56.980Z,94.96
2017-11-08T04:31:24.502Z,95.09
2017-11-08T04:33:52.040Z,95.08
2017-11-08T04:36:19.579Z,94.79
2017-11-08T04:38:47.105Z,94.93
2017-11-08T04:41:14.814Z,95.20
2017-11-08T04:43:42.328Z,94.96
2017-11-08T04:46:09.870Z,94.90
2017-11-08T04:48:38.177Z,95.16
2017-11-08T04:51:05.704Z,95.00
2017-11-08T04:53:33.229Z,94.92
2017-11-08T04:56:00.787Z,94.73
2017-11-08T04:58:28.304Z,94.87
2017-11-08T05:00:55.833Z,95.13
2017-11-08T05:03:23.397Z,94.84
2017-11-08T05:05:50.925Z,95.02
2017-11-08T05:08:18.511Z,95.09
2017-11-08T05:10:46.023Z,95.09
2017-11-08T05:13:13.588Z,95.06
2017-11-08T05:15:41.161Z,95.24
2017-11-08T05:18:08.682Z,94.96
2017-11-08T05:20:36.209Z,95.19
2017-11-08T05:23:03.792Z,94.97
2017-11-08T05:25:31.312Z,94.96
2017-11-08T05:27:58.825Z,95.20
2017-11-08T05:30:26.404Z,95.19
2017-11-08T05:32:53.941Z,95.48
2017-11-08T05:35:21.464Z,95.19
2017-11-08T05:37:49.008Z,95.29
2017-11-08T05:40:16.538Z,95.03
2017-11-08T05:42:44.083Z,95.65
2017-11-08T05:45:11.603Z,95.75
2017-11-08T05:47:39.628Z,95.78
2017-11-08T05:50:07.170Z,95.82
2017-11-08T05:52:34.697Z,95.53
2017-11-08T05:55:02.649Z,95.38
2017-11-08T05:57:30.169Z,95.34
2017-11-08T05:59:57.693Z,96.15
2017-11-08T06:02:25.265Z,95.52
2017-11-08T06:04:52.789Z,95.35
2017-11-08T06:07:20.314Z,95.74
2017-11-08T06:09:47.878Z,95.33
2017-11-08T06:12:15.395Z,94.85
2017-11-08T06:14:42.923Z,94.77
2017-11-08T06:17:10.504Z,94.83
2017-11-08T06:19:38.021Z,94.99
2017-11-08T06:22:05.540Z,95.01
2017-11-08T06:24:33.090Z,95.11
2017-11-08T06:27:00.627Z,95.04
2017-11-08T06:29:28.169Z,95.06
2017-11-08T06:31:55.717Z,94.96
2017-11-08T06:34:23.441Z,95.20
2017-11-08T06:36:50.961Z,95.36
2017-11-08T06:39:18.490Z,95.55
2017-11-08T06:41:46.242Z,95.71
2017-11-08T06:44:13.748Z,95.84
2017-11-08T06:46:41.285Z,95.66
2017-11-08T06:49:08.947Z,95.67
2017-11-08T06:51:36.472Z,95.40
2017-11-08T06:54:03.994Z,95.56
2017-11-08T06:56:31.556Z,95.50
2017-11-08T06:58:59.081Z,95.27
2017-11-08T07:01:26.672Z,95.43
2017-11-08T07:03:54.202Z,95.57
2017-11-08T07:06:21.716Z,95.58
2017-11-08T07:08:49.295Z,95.18
2017-11-08T07:11:16.830Z,95.25
2017-11-08T07:13:44.361Z,95.43
2017-11-08T07:16:11.924Z,95.75
2017-11-08T07:18:39.453Z,95.55
2017-11-08T07:21:06.973Z,95.55
2017-11-08T07:23:34.978Z,95.36
2017-11-08T07:26:02.515Z,95.51
2017-11-08T07:28:30.036Z,95.41
2017-11-08T07:30:58.014Z,95.07
2017-11-08T07:33:25.542Z,95.15
2017-11-08T07:35:53.124Z,95.36
2017-11-08T07:38:20.705Z,95.26
2017-11-08T07:40:48.225Z,95.22
2017-11-08T07:43:15.771Z,96.06
2017-11-08T07:45:43.450Z,96.21
2017-11-08T07:48:10.965Z,95.33
2017-11-08T07:50:38.480Z,95.25
2017-11-08T07:53:06.364Z,95.80
2017-11-08T07:55:39.528Z,95.03
2017-11-08T07:58:07.118Z,94.84
2017-11-08T08:00:34.641Z,94.69
2017-11-08T08:03:02.174Z,94.81
2017-11-08T08:05:29.718Z,94.45
2017-11-08T08:07:57.992Z,94.39
2017-11-08T08:10:25.720Z,93.82
2017-11-08T08:12:53.247Z,93.49
2017-11-08T08:15:20.786Z,93.83
2017-11-08T08:17:48.763Z,93.50
2017-11-08T08:20:16.284Z,93.93
2017-11-08T08:22:43.796Z,93.43
2017-11-08T08:25:11.681Z,93.52
2017-11-08T08:27:39.239Z,93.66
2017-11-08T08:30:06.761Z,93.51
2017-11-08T08:32:34.323Z,93.16
2017-11-08T08:35:01.872Z,93.07
2017-11-08T08:37:29.420Z,93.15
2017-11-08T08:39:57.121Z,92.92
2017-11-08T08:42:24.645Z,92.52
2017-11-08T08:44:52.155Z,92.93
2017-11-08T08:47:20.137Z,92.91
2017-11-08T08:49:47.670Z,92.07
2017-11-08T08:52:15.198Z,92.01
2017-11-08T08:54:43.166Z,91.45
2017-11-08T08:57:10.700Z,90.81
2017-11-08T08:59:38.226Z,91.60
2017-11-08T09:05:01.835Z,91.48
2017-11-08T09:07:29.413Z,91.23
2017-11-08T09:09:56.934Z,90.85
2017-11-08T09:12:24.461Z,90.60
2017-11-08T09:14:52.013Z,91.13
2017-11-08T09:17:19.630Z,91.24
2017-11-08T09:19:47.177Z,92.12
2017-11-08T09:22:14.695Z,92.19
2017-11-08T09:24:47.875Z,92.90
2017-11-08T09:27:15.393Z,92.76
2017-11-08T09:29:43.089Z,93.22
2017-11-08T09:32:10.603Z,92.54
2017-11-08T09:34:43.864Z,92.01
2017-11-08T09:37:11.375Z,91.69
2017-11-08T09:39:39.079Z,92.37
2017-11-08T09:42:25.234Z,92.27
2017-11-08T09:44:52.779Z,92.17
2017-11-08T09:47:20.304Z,92.59
2017-11-08T09:49:47.864Z,92.26
2017-11-08T09:52:15.394Z,92.50
2017-11-08T09:54:42.921Z,92.63
2017-11-08T09:57:11.383Z,93.11
2017-11-08T09:59:39.010Z,92.26
2017-11-08T10:02:06.531Z,92.83
2017-11-08T10:04:34.082Z,92.85
2017-11-08T10:07:01.602Z,92.34
2017-11-08T10:09:30.200Z,92.41
2017-11-08T10:12:01.747Z,92.67
2017-11-08T10:14:29.844Z,92.37
2017-11-08T10:16:57.363Z,91.73
2017-11-08T10:19:26.795Z,91.64
2017-11-08T10:21:54.345Z,91.63
2017-11-08T10:24:21.875Z,91.28
2017-11-08T10:26:49.925Z,91.84
2017-11-08T10:29:17.462Z,91.63
2017-11-08T10:31:44.976Z,91.78
2017-11-08T10:34:12.961Z,91.35
2017-11-08T10:36:40.474Z,92.15
2017-11-08T10:39:08.013Z,91.87
2017-11-08T10:41:35.699Z,91.91
2017-11-08T10:44:03.191Z,92.48
2017-11-08T10:46:30.736Z,91.43
2017-11-08T10:48:58.261Z,91.01
2017-11-08T10:51:29.433Z,91.13
2017-11-08T10:53:57.005Z,90.78
2017-11-08T10:56:24.570Z,91.45
2017-11-08T10:58:52.180Z,90.98
2017-11-08T11:01:20.671Z,90.34
2017-11-08T11:03:51.946Z,91.10
2017-11-08T11:06:19.525Z,90.95
2017-11-08T11:08:47.171Z,90.96
2017-11-08T11:11:14.697Z,91.12
2017-11-08T11:13:48.235Z,91.05
2017-11-08T11:16:16.621Z,91.51
2017-11-08T11:18:44.233Z,91.74
2017-11-08T11:21:11.790Z,92.40
2017-11-08T11:23:49.478Z,92.90
2017-11-08T11:26:17.081Z,93.04
2017-11-08T11:28:44.645Z,93.37
2017-11-08T11:31:12.215Z,93.45
2017-11-08T11:33:39.789Z,93.76
2017-11-08T11:36:07.326Z,93.72
2017-11-08T11:38:36.779Z,93.57
2017-11-08T11:41:04.324Z,93.69
2017-11-08T11:43:31.876Z,93.50
2017-11-08T11:45:59.588Z,93.36
2017-11-08T11:48:33.674Z,94.03
2017-11-08T11:51:06.925Z,93.16
2017-11-08T11:53:34.474Z,92.95
2017-11-08T11:56:02.041Z,93.15
2017-11-08T11:58:29.632Z,93.97
2017-11-08T12:00:57.253Z,93.72
2017-11-08T12:03:24.826Z,93.79
2017-11-08T12:05:52.441Z,94.53
2017-11-08T12:08:20.459Z,94.36
2017-11-08T12:10:48.091Z,94.23
2017-11-08T12:13:15.620Z,94.07
2017-11-08T12:15:43.365Z,94.10
2017-11-08T12:18:10.913Z,94.01
2017-11-08T12:20:38.458Z,93.91
2017-11-08T12:23:06.049Z,94.22
2017-11-08T12:25:33.588Z,94.32
2017-11-08T12:28:01.133Z,94.59
2017-11-08T12:30:28.812Z,94.35
2017-11-08T12:32:56.362Z,94.17
2017-11-08T12:35:24.737Z,94.25
2017-11-08T12:37:52.375Z,94.00
2017-11-08T12:40:20.731Z,94.02
2017-11-08T12:42:50.093Z,94.19
2017-11-08T12:45:18.039Z,93.92
2017-11-08T12:47:45.588Z,94.11
2017-11-08T12:50:13.145Z,93.78
2017-11-08T12:52:40.741Z,93.42
2017-11-08T12:55:08.314Z,93.01
2017-11-08T12:57:36.834Z,92.66
2017-11-08T13:00:05.538Z,92.60
2017-11-08T13:02:33.092Z,92.27
2017-11-08T13:05:00.682Z,91.83
2017-11-08T13:07:28.722Z,91.35
2017-11-08T13:09:56.267Z,91.42
2017-11-08T13:12:23.840Z,92.03
2017-11-08T13:14:51.442Z,91.21
2017-11-08T13:17:18.997Z,91.27
2017-11-08T13:19:46.538Z,90.39
2017-11-08T13:22:14.122Z,90.05
2017-11-08T13:24:41.670Z,89.40
2017-11-08T13:27:09.211Z,89.40
2017-11-08T13:29:36.915Z,90.46
2017-11-08T13:32:04.469Z,89.27
2017-11-08T13:34:32.009Z,88.58
2017-11-08T13:36:59.576Z,88.82
2017-11-08T13:39:27.122Z,88.71
2017-11-08T13:41:54.765Z,88.80
2017-11-08T13:44:22.366Z,88.49
2017-11-08T13:46:49.937Z,88.55
2017-11-08T13:49:17.501Z,88.09
2017-11-08T13:51:45.087Z,88.14
2017-11-08T13:54:12.645Z,88.74
2017-11-08T13:56:40.197Z,88.50
2017-11-08T13:59:07.893Z,88.59
2017-11-08T14:01:35.425Z,88.33
2017-11-08T14:04:06.815Z,89.11
2017-11-08T14:06:34.509Z,88.81
2017-11-08T14:09:02.040Z,88.74
2017-11-08T14:11:29.585Z,89.22
2017-11-08T14:13:57.143Z,88.90
2017-11-08T14:16:24.657Z,88.84
2017-11-08T14:18:52.254Z,89.08
2017-11-08T14:21:19.765Z,88.92
2017-11-08T14:23:47.333Z,88.92
2017-11-08T14:26:14.922Z,88.81
2017-11-08T14:28:42.451Z,88.85
2017-11-08T14:31:09.974Z,88.28
2017-11-08T14:33:37.573Z,88.50
2017-11-08T14:36:11.464Z,88.80
2017-11-08T14:38:39.312Z,88.88
2017-11-08T14:41:06.834Z,89.16
2017-11-08T14:43:34.361Z,89.29
2017-11-08T14:46:01.927Z,89.76
2017-11-08T14:48:29.447Z,89.04
2017-11-08T14:50:57.028Z,89.40
2017-11-08T14:53:24.554Z,89.15
2017-11-08T14:55:52.090Z,88.90
2017-11-08T14:58:19.676Z,88.52
2017-11-08T15:00:47.193Z,88.80
2017-11-08T15:03:14.721Z,88.71
2017-11-08T15:05:42.661Z,88.51
2017-11-08T15:08:10.194Z,88.58
2017-11-08T15:10:37.721Z,88.82
2017-11-08T15:13:05.260Z,88.41
2017-11-08T15:15:33.020Z,88.72
2017-11-08T15:18:00.540Z,88.74
2017-11-08T15:20:28.854Z,88.74
2017-11-08T15:22:56.751Z,88.86
2017-11-08T15:25:24.287Z,88.95
2017-11-08T15:27:51.809Z,89.26
2017-11-08T15:30:24.891Z,89.41
2017-11-08T15:32:52.419Z,89.66
2017-11-08T15:35:20.159Z,89.67
2017-11-08T15:37:47.688Z,89.62
2017-11-08T15:40:31.881Z,89.38
2017-11-08T15:42:59.412Z,89.58
2017-11-08T15:45:26.993Z,89.70
2017-11-08T15:47:54.525Z,89.55
2017-11-08T15:50:22.047Z,89.87
2017-11-08T15:52:50.064Z,89.93
2017-11-08T15:55:17.596Z,90.18
2017-11-08T15:57:45.123Z,89.87
2017-11-08T16:00:12.880Z,89.53
2017-11-08T16:02:40.414Z,89.54
2017-11-08T16:05:07.932Z,89.62
2017-11-08T16:07:35.915Z,89.26
2017-11-08T16:10:03.468Z,89.51
2017-11-08T16:12:30.998Z,89.49
2017-11-08T16:14:58.588Z,89.02
2017-11-08T16:17:26.906Z,89.08
2017-11-08T16:19:54.438Z,89.65
2017-11-08T16:22:22.106Z,89.36
2017-11-08T16:24:49.650Z,89.36
2017-11-08T16:27:17.184Z,89.85
2017-11-08T16:29:44.977Z,89.87
2017-11-08T16:32:20.968Z,89.30
2017-11-08T16:34:48.863Z,89.81
2017-11-08T16:37:16.386Z,89.81
2017-11-08T16:39:43.904Z,90.12
2017-11-08T16:42:11.541Z,89.75
2017-11-08T16:44:39.093Z,89.71
2017-11-08T16:47:06.639Z,89.53
2017-11-08T16:49:34.186Z,89.31
2017-11-08T16:52:01.763Z,89.73
2017-11-08T16:54:29.284Z,89.74
2017-11-08T16:56:56.802Z,89.66
2017-11-08T16:59:24.359Z,90.29
2017-11-08T17:01:51.950Z,90.11
2017-11-08T17:04:19.478Z,89.96
2017-11-08T17:06:47.001Z,89.97
2017-11-08T17:09:14.949Z,90.01
2017-11-08T17:11:42.466Z,90.40
2017-11-08T17:14:09.994Z,89.95
2017-11-08T17:16:37.669Z,90.08
2017-11-08T17:19:05.190Z,90.09
2017-11-08T17:21:32.713Z,89.67
2017-11-08T17:24:00.703Z,89.89
2017-11-08T17:26:28.230Z,89.69
2017-11-08T17:28:55.764Z,89.81
2017-11-08T17:31:23.347Z,90.06
2017-11-08T17:33:50.892Z,89.93
2017-11-08T17:36:18.428Z,90.14
2017-11-08T17:38:46.146Z,90.16
2017-11-08T17:41:13.689Z,89.82
2017-11-08T17:43:41.209Z,90.00
2017-11-08T17:46:08.758Z,90.32
2017-11-08T17:48:38.165Z,90.15
2017-11-08T17:51:05.754Z,90.17
2017-11-08T17:53:33.278Z,90.01
2017-11-08T17:56:00.806Z,90.28
2017-11-08T17:58:28.882Z,90.25
2017-11-08T18:00:56.404Z,90.35
2017-11-08T18:03:23.933Z,90.63
2017-11-08T18:05:51.698Z,90.67
2017-11-08T18:08:19.218Z,90.77
2017-11-08T18:10:46.754Z,90.79
2017-11-08T18:13:14.325Z,90.96
2017-11-08T18:15:41.875Z,90.67
2017-11-08T18:18:09.401Z,90.85
2017-11-08T18:20:37.134Z,90.70
2017-11-08T18:23:04.673Z,91.26
2017-11-08T18:25:32.203Z,91.45
2017-11-08T18:28:00.091Z,91.94
2017-11-08T18:30:27.618Z,91.22
2017-11-08T18:32:55.158Z,91.53
2017-11-08T18:35:22.738Z,90.68
2017-11-08T18:37:50.270Z,90.61
2017-11-08T18:40:17.792Z,90.62
2017-11-08T18:42:45.493Z,90.33
2017-11-08T18:45:13.021Z,90.67
2017-11-08T18:47:40.547Z,90.46
2017-11-08T18:50:08.208Z,90.68
2017-11-08T18:52:35.892Z,90.64
2017-11-08T18:55:03.424Z,90.48
2017-11-08T18:57:30.958Z,90.48
2017-11-08T18:59:58.549Z,90.30
2017-11-08T19:02:26.064Z,90.38
2017-11-08T19:04:53.582Z,90.20
2017-11-08T19:07:21.149Z,90.11
2017-11-08T19:09:48.668Z,89.92
2017-11-08T19:12:16.194Z,89.96
2017-11-08T19:14:43.751Z,89.98
2017-11-08T19:17:11.318Z,90.12
2017-11-08T19:19:38.901Z,89.96
2017-11-08T19:22:06.453Z,90.03
2017-11-08T19:24:34.017Z,90.01
2017-11-08T19:27:01.726Z,90.35
2017-11-08T19:29:29.250Z,90.03
2017-11-08T19:31:56.771Z,89.60
2017-11-08T19:34:24.738Z,89.93
2017-11-08T19:36:52.466Z,89.64
2017-11-08T19:39:20.026Z,89.46
2017-11-08T19:41:47.757Z,89.68
2017-11-08T19:44:15.277Z,89.54
2017-11-08T19:46:42.900Z,89.54
2017-11-08T19:49:10.504Z,89.64
2017-11-08T19:51:38.030Z,89.83
2017-11-08T19:54:05.558Z,90.01
2017-11-08T19:56:33.671Z,89.75
2017-11-08T19:59:01.205Z,89.77
2017-11-08T20:01:28.747Z,89.98
2017-11-08T20:03:56.423Z,89.94
2017-11-08T20:06:23.957Z,90.24
2017-11-08T20:08:51.485Z,89.69
2017-11-08T20:11:19.081Z,89.99
2017-11-08T20:13:46.632Z,89.63
2017-11-08T20:16:14.174Z,89.99
2017-11-08T20:18:41.877Z,89.81
2017-11-08T20:21:09.389Z,89.97
2017-11-08T20:23:36.918Z,90.12
2017-11-08T20:26:04.466Z,90.55
2017-11-08T20:28:31.985Z,89.97
2017-11-08T20:30:59.586Z,89.53
2017-11-08T20:33:27.111Z,89.93
2017-11-08T20:35:54.635Z,90.31
2017-11-08T20:38:22.180Z,90.63
2017-11-08T20:40:49.709Z,89.94
2017-11-08T20:43:17.393Z,90.36
2017-11-08T20:45:44.905Z,90.28
2017-11-08T20:48:12.431Z,90.57
2017-11-08T20:50:40.103Z,90.28
2017-11-08T20:53:07.618Z,90.31
2017-11-08T20:55:35.150Z,90.94
2017-11-08T20:58:02.834Z,91.31
2017-11-08T21:00:30.352Z,91.19
2017-11-08T21:02:57.872Z,90.10
2017-11-08T21:05:25.412Z,90.54
2017-11-08T21:07:52.934Z,90.42
2017-11-08T21:10:20.501Z,90.27
2017-11-08T21:12:48.031Z,90.44
2017-11-08T21:15:15.734Z,90.33
2017-11-08T21:17:43.258Z,90.32
2017-11-08T21:20:10.786Z,90.04
2017-11-08T21:22:38.417Z,89.99
2017-11-08T21:25:06.911Z,90.26
2017-11-08T21:27:34.504Z,90.44
2017-11-08T21:30:02.105Z,89.87
2017-11-08T21:32:29.635Z,89.49
2017-11-08T21:34:57.174Z,90.05
2017-11-08T21:37:24.926Z,90.38
2017-11-08T21:39:52.457Z,90.07
2017-11-08T21:42:19.978Z,90.04
2017-11-08T21:44:47.558Z,90.60
2017-11-08T21:47:15.086Z,90.51
2017-11-08T21:49:42.613Z,90.81
2017-11-08T21:52:10.376Z,89.98
2017-11-08T21:54:37.900Z,90.06
2017-11-08T21:57:05.430Z,89.80
2017-11-08T21:59:33.013Z,90.83
2017-11-08T22:02:00.546Z,90.27
2017-11-08T22:04:28.066Z,90.67
2017-11-08T22:06:55.633Z,90.92
2017-11-08T22:09:23.159Z,90.41
2017-11-08T22:11:50.689Z,90.46
2017-11-08T22:14:19.214Z,90.40
2017-11-08T22:16:46.742Z,90.68
2017-11-08T22:19:14.265Z,90.72
2017-11-08T22:21:42.157Z,90.73
2017-11-08T22:24:09.683Z,91.04
2017-11-08T22:26:37.218Z,91.01
2017-11-08T22:29:04.779Z,90.69
2017-11-08T22:31:32.692Z,90.43
2017-11-08T22:34:00.320Z,90.14
2017-11-08T22:36:27.841Z,90.89
2017-11-08T22:38:55.414Z,90.70
2017-11-08T22:41:22.966Z,90.83
2017-11-08T22:43:50.489Z,90.89
2017-11-08T22:46:18.159Z,90.67
2017-11-08T22:48:45.836Z,90.67
2017-11-08T22:51:13.359Z,90.41
2017-11-08T22:53:40.953Z,90.64
2017-11-08T22:56:08.472Z,90.34
2017-11-08T22:58:36.003Z,90.99
2017-11-08T23:01:03.654Z,91.23
2017-11-08T23:03:31.177Z,91.50
2017-11-08T23:05:58.701Z,91.39
2017-11-08T23:08:26.281Z,91.68
2017-11-08T23:10:53.825Z,91.38
2017-11-08T23:13:21.354Z,92.16
2017-11-08T23:15:49.029Z,92.17
2017-11-08T23:18:16.926Z,91.85
2017-11-08T23:20:44.497Z,91.67
2017-11-08T23:23:12.352Z,92.32
2017-11-08T23:25:40.272Z,91.01
2017-11-08T23:28:08.492Z,91.47
2017-11-08T23:30:36.041Z,90.82
2017-11-08T23:33:03.641Z,90.72
2017-11-08T23:35:31.178Z,90.34
2017-11-08T23:37:58.725Z,90.34
2017-11-08T23:40:26.730Z,90.20
2017-11-08T23:42:54.259Z,90.20
2017-11-08T23:45:21.789Z,90.17
2017-11-08T23:47:49.408Z,90.57
2017-11-08T23:50:17.035Z,90.33
2017-11-08T23:52:44.570Z,90.70
2017-11-08T23:55:12.166Z,90.61
2017-11-08T23:57:39.701Z,91.20
